createdAt,value
2023-02-09T00:00:16.798Z,86.0
2023-02-09T00:01:17.329Z,86.1
2023-02-09T00:02:17.041Z,85.9
2023-02-09T00:03:16.714Z,85.9
2023-02-09T00:04:17.271Z,85.7
2023-02-09T00:05:16.768Z,85.7
2023-02-09T00:06:17.244Z,85.5
2023-02-09T00:07:16.754Z,85.4
2023-02-09T00:08:17.281Z,85.2
2023-02-09T00:09:16.804Z,85.3
2023-02-09T00:10:17.339Z,85.2
2023-02-09T00:11:16.841Z,85.2
2023-02-09T00:12:16.738Z,85.1
2023-02-09T00:13:17.237Z,85.1
2023-02-09T00:14:16.786Z,85.0
2023-02-09T00:15:17.305Z,85.0
2023-02-09T00:16:16.914Z,85.0
2023-02-09T00:17:17.438Z,84.9
2023-02-09T00:18:16.961Z,84.8
2023-02-09T00:19:16.470Z,84.8
2023-02-09T00:20:16.987Z,84.8
2023-02-09T00:21:16.475Z,84.8
2023-02-09T00:22:17.016Z,84.8
2023-02-09T00:23:16.570Z,84.7
2023-02-09T00:24:17.106Z,84.7
2023-02-09T00:25:16.591Z,84.6
2023-02-09T00:26:17.074Z,84.7
2023-02-09T00:27:16.563Z,84.7
2023-02-09T00:28:17.224Z,85.0
2023-02-09T00:29:16.752Z,85.1
2023-02-09T00:30:17.306Z,85.2
2023-02-09T00:31:17.234Z,85.2
2023-02-09T00:32:16.488Z,85.3
2023-02-09T00:33:16.992Z,85.4
2023-02-09T00:34:16.511Z,85.4
2023-02-09T00:35:17.020Z,85.6
2023-02-09T00:36:16.534Z,85.5
2023-02-09T00:37:17.051Z,85.5
2023-02-09T00:38:16.529Z,85.4
2023-02-09T00:39:16.999Z,85.3
2023-02-09T00:40:16.554Z,85.3
2023-02-09T00:41:17.047Z,85.3
2023-02-09T00:42:16.635Z,85.5
2023-02-09T00:43:17.122Z,85.6
2023-02-09T00:44:16.598Z,85.7
2023-02-09T00:45:17.123Z,85.8
2023-02-09T00:46:16.853Z,85.7
2023-02-09T00:47:17.396Z,85.6
2023-02-09T00:48:16.931Z,85.7
2023-02-09T00:49:17.442Z,85.7
2023-02-09T00:50:16.944Z,85.5
2023-02-09T00:51:17.426Z,85.4
2023-02-09T00:52:17.126Z,85.5
2023-02-09T00:53:16.617Z,85.4
2023-02-09T00:54:17.150Z,85.3
2023-02-09T00:55:16.660Z,85.3
2023-02-09T00:56:17.156Z,85.3
2023-02-09T00:57:16.637Z,85.2
2023-02-09T00:58:17.137Z,85.2
2023-02-09T00:59:16.650Z,85.2
2023-02-09T01:00:17.168Z,85.2
2023-02-09T01:01:16.762Z,85.2
2023-02-09T01:02:17.056Z,85.1
2023-02-09T01:03:16.576Z,85.1
2023-02-09T01:04:17.188Z,85.1
2023-02-09T01:05:16.684Z,85.1
2023-02-09T01:06:17.171Z,85.1
2023-02-09T01:07:16.658Z,85.0
2023-02-09T01:08:24.285Z,85.0
2023-02-09T01:09:16.771Z,85.1
2023-02-09T01:10:17.282Z,85.0
2023-02-09T01:11:16.794Z,84.9
2023-02-09T01:12:17.161Z,85.0
2023-02-09T01:13:16.657Z,85.0
2023-02-09T01:14:17.166Z,85.1
2023-02-09T01:15:16.665Z,85.2
2023-02-09T01:16:17.299Z,85.1
2023-02-09T01:17:16.828Z,85.1
2023-02-09T01:18:17.347Z,85.0
2023-02-09T01:19:17.830Z,85.0
2023-02-09T01:20:17.325Z,85.0
2023-02-09T01:21:16.817Z,85.1
2023-02-09T01:22:16.800Z,85.2
2023-02-09T01:23:17.315Z,85.2
2023-02-09T01:24:16.836Z,85.3
2023-02-09T01:25:17.315Z,85.7
2023-02-09T01:26:16.835Z,85.9
2023-02-09T01:27:17.350Z,85.9
2023-02-09T01:28:16.905Z,86.0
2023-02-09T01:29:17.448Z,86.2
2023-02-09T01:30:16.928Z,86.2
2023-02-09T01:31:17.739Z,86.2
2023-02-09T01:32:16.834Z,86.3
2023-02-09T01:33:17.311Z,86.3
2023-02-09T01:34:16.831Z,86.4
2023-02-09T01:35:17.355Z,86.6
2023-02-09T01:36:16.824Z,86.6
2023-02-09T01:37:17.347Z,86.6
2023-02-09T01:38:16.954Z,86.7
2023-02-09T01:39:17.460Z,86.8
2023-02-09T01:40:16.979Z,87.3
2023-02-09T01:41:16.493Z,87.3
2023-02-09T01:42:17.330Z,87.1
2023-02-09T01:43:16.858Z,87.5
2023-02-09T01:44:17.370Z,87.4
2023-02-09T01:45:16.882Z,87.4
2023-02-09T01:46:17.667Z,87.7
2023-02-09T01:47:17.168Z,87.4
2023-02-09T01:48:16.646Z,87.5
2023-02-09T01:49:17.152Z,87.4
2023-02-09T01:50:16.704Z,87.3
2023-02-09T01:51:17.188Z,87.3
2023-02-09T01:52:16.666Z,87.2
2023-02-09T01:53:17.199Z,87.0
2023-02-09T01:54:16.706Z,87.0
2023-02-09T01:55:17.241Z,87.0
2023-02-09T01:56:16.733Z,86.9
2023-02-09T01:57:17.252Z,86.9
2023-02-09T01:58:16.779Z,86.9
2023-02-09T01:59:17.303Z,87.0
2023-02-09T02:00:16.812Z,87.1
2023-02-09T02:01:17.410Z,87.1
2023-02-09T02:02:16.875Z,87.3
2023-02-09T02:03:17.364Z,87.5
2023-02-09T02:04:16.871Z,87.8
2023-02-09T02:05:17.389Z,87.9
2023-02-09T02:06:16.890Z,88.1
2023-02-09T02:07:17.410Z,88.1
2023-02-09T02:08:16.889Z,88.0
2023-02-09T02:09:17.398Z,88.1
2023-02-09T02:10:16.915Z,88.3
2023-02-09T02:11:17.451Z,88.2
2023-02-09T02:12:17.083Z,88.2
2023-02-09T02:13:16.577Z,88.1
2023-02-09T02:14:17.070Z,88.0
2023-02-09T02:15:16.556Z,87.9
2023-02-09T02:16:17.179Z,87.9
2023-02-09T02:17:16.725Z,87.9
2023-02-09T02:18:17.222Z,87.9
2023-02-09T02:19:16.714Z,88.2
2023-02-09T02:20:17.192Z,88.3
2023-02-09T02:21:16.721Z,88.4
2023-02-09T02:22:17.031Z,88.4
2023-02-09T02:23:16.531Z,88.5
2023-02-09T02:24:17.023Z,88.5
2023-02-09T02:25:16.540Z,88.5
2023-02-09T02:26:17.055Z,88.7
2023-02-09T02:27:16.591Z,89.1
2023-02-09T02:28:17.207Z,89.2
2023-02-09T02:29:16.794Z,89.1
2023-02-09T02:30:17.331Z,89.3
2023-02-09T02:31:17.142Z,89.2
2023-02-09T02:32:17.328Z,89.2
2023-02-09T02:33:16.844Z,88.9
2023-02-09T02:34:17.293Z,88.7
2023-02-09T02:35:16.795Z,88.7
2023-02-09T02:36:17.344Z,88.5
2023-02-09T02:37:16.845Z,88.4
2023-02-09T02:38:17.314Z,88.4
2023-02-09T02:39:16.802Z,88.4
2023-02-09T02:40:17.299Z,88.4
2023-02-09T02:41:16.776Z,88.5
2023-02-09T02:42:17.123Z,88.5
2023-02-09T02:43:16.615Z,88.5
2023-02-09T02:44:17.128Z,88.7
2023-02-09T02:45:16.646Z,88.7
2023-02-09T02:46:17.263Z,88.6
2023-02-09T02:47:16.759Z,88.6
2023-02-09T02:48:17.232Z,88.6
2023-02-09T02:49:16.719Z,88.6
2023-02-09T02:50:17.233Z,88.6
2023-02-09T02:51:16.782Z,88.7
2023-02-09T02:52:17.239Z,88.7
2023-02-09T02:53:16.786Z,88.7
2023-02-09T02:54:17.292Z,88.8
2023-02-09T02:55:16.852Z,88.8
2023-02-09T02:56:17.387Z,88.7
2023-02-09T02:57:16.903Z,88.8
2023-02-09T02:58:17.383Z,88.9
2023-02-09T02:59:16.864Z,88.9
2023-02-09T03:00:17.392Z,88.8
2023-02-09T03:01:16.972Z,88.8
2023-02-09T03:02:16.898Z,88.8
2023-02-09T03:03:17.392Z,88.8
2023-02-09T03:04:16.889Z,88.9
2023-02-09T03:05:17.541Z,89.2
2023-02-09T03:06:17.151Z,89.0
2023-02-09T03:07:16.649Z,88.9
2023-02-09T03:08:17.143Z,88.9
2023-02-09T03:09:16.626Z,88.8
2023-02-09T03:10:17.154Z,88.7
2023-02-09T03:11:16.629Z,88.8
2023-02-09T03:12:17.276Z,88.7
2023-02-09T03:13:16.785Z,88.7
2023-02-09T03:14:17.290Z,88.6
2023-02-09T03:15:16.771Z,88.8
2023-02-09T03:16:17.370Z,89.1
2023-02-09T03:17:16.897Z,89.2
2023-02-09T03:18:17.393Z,89.3
2023-02-09T03:19:16.926Z,89.1
2023-02-09T03:20:17.424Z,89.1
2023-02-09T03:21:16.921Z,89.1
2023-02-09T03:22:16.532Z,89.2
2023-02-09T03:23:17.018Z,89.2
2023-02-09T03:24:16.548Z,89.3
2023-02-09T03:25:17.042Z,89.2
2023-02-09T03:26:16.528Z,89.4
2023-02-09T03:27:17.056Z,89.4
2023-02-09T03:28:16.660Z,89.4
2023-02-09T03:29:17.191Z,89.3
2023-02-09T03:30:16.686Z,89.3
2023-02-09T03:31:17.386Z,89.2
2023-02-09T03:32:16.686Z,89.0
2023-02-09T03:33:16.483Z,89.0
2023-02-09T03:34:16.986Z,89.0
2023-02-09T03:35:16.500Z,88.9
2023-02-09T03:36:17.031Z,88.8
2023-02-09T03:37:16.583Z,88.8
2023-02-09T03:38:17.050Z,88.8
2023-02-09T03:39:16.529Z,88.8
2023-02-09T03:40:17.089Z,89.0
2023-02-09T03:41:16.607Z,89.0
2023-02-09T03:42:17.316Z,88.9
2023-02-09T03:43:16.811Z,88.8
2023-02-09T03:44:17.298Z,88.7
2023-02-09T03:45:16.789Z,88.7
2023-02-09T03:46:17.470Z,88.8
2023-02-09T03:47:17.044Z,88.8
2023-02-09T03:48:16.549Z,88.8
2023-02-09T03:49:17.039Z,88.7
2023-02-09T03:50:16.550Z,88.7
2023-02-09T03:51:17.094Z,88.7
2023-02-09T03:52:16.804Z,88.7
2023-02-09T03:53:17.329Z,88.7
2023-02-09T03:54:16.822Z,88.7
2023-02-09T03:55:17.305Z,88.8
2023-02-09T03:56:16.826Z,88.8
2023-02-09T03:57:17.355Z,88.9
2023-02-09T03:58:17.017Z,88.9
2023-02-09T03:59:16.547Z,88.9
2023-02-09T04:00:17.088Z,89.1
2023-02-09T04:01:16.655Z,89.1
2023-02-09T04:02:17.221Z,89.1
2023-02-09T04:03:16.742Z,89.1
2023-02-09T04:04:17.247Z,88.9
2023-02-09T04:05:16.897Z,88.7
2023-02-09T04:06:16.446Z,88.6
2023-02-09T04:07:16.982Z,88.5
2023-02-09T04:08:16.577Z,88.4
2023-02-09T04:09:17.090Z,88.7
2023-02-09T04:10:16.693Z,89.0
2023-02-09T04:11:17.204Z,89.3
2023-02-09T04:12:16.594Z,89.4
2023-02-09T04:13:17.095Z,89.3
2023-02-09T04:14:16.596Z,89.1
2023-02-09T04:15:17.119Z,89.1
2023-02-09T04:16:16.739Z,89.1
2023-02-09T04:17:17.253Z,88.9
2023-02-09T04:18:16.770Z,88.9
2023-02-09T04:19:17.263Z,88.6
2023-02-09T04:20:16.795Z,88.7
2023-02-09T04:21:17.321Z,88.6
2023-02-09T04:22:16.884Z,88.5
2023-02-09T04:23:21.059Z,88.4
2023-02-09T04:24:16.658Z,88.3
2023-02-09T04:25:17.144Z,88.3
2023-02-09T04:26:16.698Z,88.1
2023-02-09T04:27:17.227Z,88.2
2023-02-09T04:28:16.808Z,88.1
2023-02-09T04:29:17.344Z,88.1
2023-02-09T04:30:16.865Z,88.1
2023-02-09T04:31:17.590Z,88.1
2023-02-09T04:32:17.108Z,88.1
2023-02-09T04:33:16.602Z,88.1
2023-02-09T04:34:17.062Z,88.2
2023-02-09T04:35:16.542Z,88.2
2023-02-09T04:36:17.017Z,88.3
2023-02-09T04:37:16.524Z,88.3
2023-02-09T04:38:17.033Z,88.3
2023-02-09T04:39:16.550Z,88.3
2023-02-09T04:40:17.053Z,88.3
2023-02-09T04:41:16.550Z,88.4
2023-02-09T04:42:16.926Z,88.4
2023-02-09T04:43:17.418Z,88.4
2023-02-09T04:44:16.940Z,88.4
2023-02-09T04:45:17.446Z,88.4
2023-02-09T04:46:17.220Z,88.6
2023-02-09T04:47:16.737Z,88.7
2023-02-09T04:48:17.250Z,88.9
2023-02-09T04:49:16.743Z,89.0
2023-02-09T04:50:17.246Z,89.2
2023-02-09T04:51:16.783Z,89.2
2023-02-09T04:52:16.500Z,89.3
2023-02-09T04:53:17.018Z,89.3
2023-02-09T04:54:16.533Z,89.3
2023-02-09T04:55:17.025Z,89.1
2023-02-09T04:56:16.555Z,89.1
2023-02-09T04:57:17.089Z,89.4
2023-02-09T04:58:17.404Z,89.4
2023-02-09T04:59:16.887Z,89.4
2023-02-09T05:00:17.374Z,89.5
2023-02-09T05:01:16.942Z,89.4
2023-02-09T05:02:16.550Z,89.2
2023-02-09T05:03:17.115Z,89.2
2023-02-09T05:04:16.635Z,89.1
2023-02-09T05:05:17.171Z,89.1
2023-02-09T05:06:16.699Z,89.0
2023-02-09T05:07:17.190Z,89.0
2023-02-09T05:08:16.723Z,89.0
2023-02-09T05:09:17.212Z,88.9
2023-02-09T05:10:16.740Z,88.9
2023-02-09T05:11:17.282Z,88.9
2023-02-09T05:12:16.841Z,88.8
2023-02-09T05:13:17.300Z,88.8
2023-02-09T05:14:16.770Z,88.8
2023-02-09T05:15:17.253Z,89.0
2023-02-09T05:16:16.859Z,89.2
2023-02-09T05:17:17.463Z,89.4
2023-02-09T05:18:16.984Z,89.3
2023-02-09T05:19:16.469Z,89.4
2023-02-09T05:20:16.967Z,89.4
2023-02-09T05:21:17.474Z,89.4
2023-02-09T05:22:17.247Z,89.2
2023-02-09T05:23:16.769Z,89.1
2023-02-09T05:24:17.283Z,88.8
2023-02-09T05:25:16.818Z,88.7
2023-02-09T05:26:17.323Z,88.6
2023-02-09T05:27:16.800Z,88.6
2023-02-09T05:28:17.432Z,88.6
2023-02-09T05:29:16.996Z,88.6
2023-02-09T05:30:16.479Z,88.5
2023-02-09T05:31:17.296Z,88.5
2023-02-09T05:32:16.626Z,88.6
2023-02-09T05:33:17.126Z,88.5
2023-02-09T05:34:16.640Z,88.6
2023-02-09T05:35:17.134Z,88.7
2023-02-09T05:36:16.616Z,88.7
2023-02-09T05:37:17.112Z,88.7
2023-02-09T05:38:16.652Z,88.7
2023-02-09T05:39:17.139Z,88.7
2023-02-09T05:40:16.658Z,88.7
2023-02-09T05:41:17.141Z,88.8
2023-02-09T05:42:16.683Z,88.8
2023-02-09T05:43:17.183Z,88.9
2023-02-09T05:44:16.672Z,88.9
2023-02-09T05:45:17.191Z,89.0
2023-02-09T05:46:16.810Z,88.9
2023-02-09T05:47:17.402Z,88.9
2023-02-09T05:48:16.953Z,89.0
2023-02-09T05:49:17.463Z,88.9
2023-02-09T05:50:16.961Z,88.9
2023-02-09T05:51:17.450Z,88.9
2023-02-09T05:52:17.393Z,88.9
2023-02-09T05:53:16.869Z,88.8
2023-02-09T05:54:17.348Z,88.8
2023-02-09T05:55:16.852Z,89.0
2023-02-09T05:56:17.334Z,89.2
2023-02-09T05:57:16.799Z,89.1
2023-02-09T05:58:17.298Z,89.0
2023-02-09T05:59:16.794Z,88.9
2023-02-09T06:00:17.347Z,89.0
2023-02-09T06:01:16.843Z,89.0
2023-02-09T06:02:17.457Z,88.9
2023-02-09T06:03:17.094Z,88.9
2023-02-09T06:04:16.668Z,88.8
2023-02-09T06:05:17.153Z,88.8
2023-02-09T06:06:16.641Z,88.8
2023-02-09T06:07:17.152Z,88.9
2023-02-09T06:08:16.620Z,88.9
2023-02-09T06:09:17.121Z,89.0
2023-02-09T06:10:16.626Z,89.2
2023-02-09T06:11:17.180Z,89.5
2023-02-09T06:12:16.691Z,89.6
2023-02-09T06:13:17.208Z,89.7
2023-02-09T06:14:16.723Z,89.9
2023-02-09T06:15:17.225Z,90.0
2023-02-09T06:16:16.730Z,90.0
2023-02-09T06:17:17.217Z,90.0
2023-02-09T06:18:16.742Z,90.0
2023-02-09T06:19:17.297Z,89.9
2023-02-09T06:20:16.813Z,89.9
2023-02-09T06:21:17.332Z,89.9
2023-02-09T06:22:16.738Z,89.8
2023-02-09T06:23:17.231Z,89.7
2023-02-09T06:24:16.747Z,89.7
2023-02-09T06:25:17.283Z,89.6
2023-02-09T06:26:16.767Z,89.6
2023-02-09T06:27:17.296Z,89.5
2023-02-09T06:28:17.002Z,89.5
2023-02-09T06:29:16.535Z,89.5
2023-02-09T06:30:17.052Z,89.5
2023-02-09T06:31:16.773Z,89.5
2023-02-09T06:32:17.283Z,89.5
2023-02-09T06:33:16.838Z,89.6
2023-02-09T06:34:17.348Z,89.6
2023-02-09T06:35:16.888Z,89.6
2023-02-09T06:36:17.394Z,89.7
2023-02-09T06:37:16.901Z,89.8
2023-02-09T06:38:17.386Z,89.9
2023-02-09T06:39:16.878Z,89.9
2023-02-09T06:40:17.339Z,89.8
2023-02-09T06:41:16.832Z,89.6
2023-02-09T06:42:16.811Z,89.5
2023-02-09T06:43:17.337Z,89.4
2023-02-09T06:44:16.870Z,89.3
2023-02-09T06:45:16.521Z,89.3
2023-02-09T06:46:17.135Z,89.3
2023-02-09T06:47:16.731Z,89.2
2023-02-09T06:48:17.250Z,89.2
2023-02-09T06:49:16.902Z,89.2
2023-02-09T06:50:17.528Z,89.2
2023-02-09T06:51:17.443Z,89.1
2023-02-09T06:52:16.510Z,89.2
2023-02-09T06:53:17.018Z,89.1
2023-02-09T06:54:16.506Z,89.1
2023-02-09T06:55:17.049Z,88.8
2023-02-09T06:56:16.577Z,88.8
2023-02-09T06:57:17.072Z,88.8
2023-02-09T06:58:16.560Z,88.8
2023-02-09T06:59:17.138Z,88.9
2023-02-09T07:00:16.641Z,88.8
2023-02-09T07:01:17.216Z,88.8
2023-02-09T07:02:16.803Z,88.8
2023-02-09T07:03:17.307Z,88.7
2023-02-09T07:04:16.833Z,88.4
2023-02-09T07:05:17.306Z,88.4
2023-02-09T07:06:16.784Z,88.3
2023-02-09T07:07:17.279Z,88.4
2023-02-09T07:08:16.772Z,88.4
2023-02-09T07:09:17.272Z,88.4
2023-02-09T07:10:16.791Z,88.5
2023-02-09T07:11:17.345Z,88.6
2023-02-09T07:12:17.062Z,88.6
2023-02-09T07:13:16.584Z,88.7
2023-02-09T07:14:17.083Z,88.5
2023-02-09T07:15:16.606Z,88.5
2023-02-09T07:16:17.242Z,88.5
2023-02-09T07:17:16.831Z,88.6
2023-02-09T07:18:17.317Z,88.5
2023-02-09T07:19:16.818Z,88.5
2023-02-09T07:20:17.302Z,88.6
2023-02-09T07:21:16.801Z,88.6
2023-02-09T07:22:16.469Z,88.6
2023-02-09T07:23:16.988Z,88.5
2023-02-09T07:24:16.492Z,88.5
2023-02-09T07:25:17.010Z,88.3
2023-02-09T07:26:16.562Z,88.2
2023-02-09T07:27:17.055Z,88.2
2023-02-09T07:28:16.640Z,88.2
2023-02-09T07:29:17.146Z,88.2
2023-02-09T07:30:16.656Z,88.1
2023-02-09T07:31:17.454Z,88.0
2023-02-09T07:32:17.124Z,87.8
2023-02-09T07:33:16.634Z,87.4
2023-02-09T07:34:17.146Z,87.2
2023-02-09T07:35:16.682Z,87.2
2023-02-09T07:36:17.403Z,87.1
2023-02-09T07:37:17.275Z,86.9
2023-02-09T07:38:16.892Z,86.4
2023-02-09T07:39:16.580Z,86.3
2023-02-09T07:40:17.086Z,86.4
2023-02-09T07:41:16.602Z,86.4
2023-02-09T07:42:17.056Z,86.3
2023-02-09T07:43:16.530Z,86.0
2023-02-09T07:44:17.011Z,86.0
2023-02-09T07:45:16.494Z,85.9
2023-02-09T07:46:17.127Z,85.7
2023-02-09T07:47:16.631Z,85.5
2023-02-09T07:48:17.112Z,85.2
2023-02-09T07:49:16.635Z,85.3
2023-02-09T07:50:20.236Z,85.0
2023-02-09T07:51:16.765Z,85.0
2023-02-09T07:52:17.160Z,84.9
2023-02-09T07:53:16.691Z,85.0
2023-02-09T07:54:17.217Z,84.7
2023-02-09T07:55:16.710Z,84.3
2023-02-09T07:56:17.193Z,84.2
2023-02-09T07:57:16.709Z,83.7
2023-02-09T07:58:17.176Z,83.3
2023-02-09T07:59:16.672Z,83.1
2023-02-09T08:00:17.271Z,82.7
2023-02-09T08:01:16.768Z,83.1
2023-02-09T08:02:17.426Z,82.9
2023-02-09T08:03:16.945Z,82.4
2023-02-09T08:04:17.465Z,82.6
2023-02-09T08:05:17.064Z,82.6
2023-02-09T08:06:19.760Z,82.3
2023-02-09T08:07:16.692Z,81.6
2023-02-09T08:08:17.207Z,81.8
2023-02-09T08:09:16.769Z,82.0
2023-02-09T08:10:17.292Z,82.1
2023-02-09T08:11:16.804Z,82.1
2023-02-09T08:12:17.098Z,81.3
2023-02-09T08:13:16.595Z,81.6
2023-02-09T08:14:17.087Z,81.4
2023-02-09T08:15:16.604Z,81.4
2023-02-09T08:16:17.184Z,81.3
2023-02-09T08:17:16.789Z,81.0
2023-02-09T08:18:17.283Z,80.7
2023-02-09T08:19:16.781Z,80.4
2023-02-09T08:20:17.277Z,79.5
2023-02-09T08:21:16.796Z,78.7
2023-02-09T08:22:17.321Z,77.9
2023-02-09T08:23:16.819Z,79.1
2023-02-09T08:24:17.329Z,78.8
2023-02-09T08:25:16.844Z,78.7
2023-02-09T08:26:17.373Z,78.0
2023-02-09T08:27:16.867Z,77.9
2023-02-09T08:28:17.532Z,78.0
2023-02-09T08:29:17.076Z,77.1
2023-02-09T08:30:16.607Z,77.0
2023-02-09T08:31:17.616Z,76.4
2023-02-09T08:32:16.900Z,75.6
2023-02-09T08:33:17.452Z,75.3
2023-02-09T08:34:16.961Z,75.8
2023-02-09T08:35:17.449Z,75.6
2023-02-09T08:36:16.963Z,75.0
2023-02-09T08:37:16.464Z,74.9
2023-02-09T08:38:16.998Z,74.5
2023-02-09T08:39:16.474Z,73.9
2023-02-09T08:40:17.007Z,71.7
2023-02-09T08:41:16.604Z,72.5
2023-02-09T08:42:17.119Z,72.9
2023-02-09T08:43:16.611Z,72.8
2023-02-09T08:44:17.124Z,72.2
2023-02-09T08:45:16.651Z,72.2
2023-02-09T08:46:17.457Z,72.0
2023-02-09T08:47:17.058Z,71.4
2023-02-09T08:48:16.585Z,71.1
2023-02-09T08:49:17.076Z,70.9
2023-02-09T08:50:16.574Z,68.3
2023-02-09T08:51:17.075Z,69.7
2023-02-09T08:52:16.556Z,69.7
2023-02-09T08:53:17.088Z,69.2
2023-02-09T08:54:16.581Z,67.8
2023-02-09T08:55:17.096Z,67.5
2023-02-09T08:56:16.585Z,67.2
2023-02-09T08:57:17.077Z,67.0
2023-02-09T08:58:16.570Z,66.6
2023-02-09T08:59:20.194Z,65.5
2023-02-09T09:00:16.800Z,65.3
2023-02-09T09:01:17.421Z,64.9
2023-02-09T09:02:16.637Z,64.3
2023-02-09T09:03:17.233Z,64.6
2023-02-09T09:04:16.756Z,61.1
2023-02-09T09:05:17.267Z,62.7
2023-02-09T09:06:16.782Z,63.4
2023-02-09T09:07:17.255Z,63.6
2023-02-09T09:08:16.749Z,62.6
2023-02-09T09:09:17.268Z,62.0
2023-02-09T09:10:16.832Z,62.5
2023-02-09T09:11:17.352Z,58.9
2023-02-09T09:12:16.961Z,59.1
2023-02-09T09:13:17.479Z,62.3
2023-02-09T09:14:16.985Z,62.0
2023-02-09T09:15:16.502Z,62.0
2023-02-09T09:16:17.148Z,60.2
2023-02-09T09:17:16.653Z,60.4
2023-02-09T09:18:17.167Z,60.3
2023-02-09T09:19:16.680Z,59.8
2023-02-09T09:20:17.191Z,60.2
2023-02-09T09:21:16.694Z,58.8
2023-02-09T09:22:16.655Z,59.8
2023-02-09T09:23:17.175Z,60.0
2023-02-09T09:24:16.698Z,60.7
2023-02-09T09:25:17.198Z,60.0
2023-02-09T09:26:16.680Z,59.9
2023-02-09T09:27:17.179Z,59.6
2023-02-09T09:28:16.883Z,59.5
2023-02-09T09:29:17.453Z,60.0
2023-02-09T09:30:16.993Z,58.8
2023-02-09T09:31:16.697Z,59.9
2023-02-09T09:32:17.251Z,60.0
2023-02-09T09:33:17.006Z,59.7
2023-02-09T09:34:16.566Z,58.8
2023-02-09T09:35:17.049Z,58.8
2023-02-09T09:36:16.547Z,58.9
2023-02-09T09:37:17.058Z,59.0
2023-02-09T09:38:16.555Z,58.7
2023-02-09T09:39:17.075Z,59.0
2023-02-09T09:40:16.585Z,59.9
2023-02-09T09:41:17.082Z,60.2
2023-02-09T09:42:16.572Z,60.9
2023-02-09T09:43:17.059Z,62.7
2023-02-09T09:44:16.577Z,61.7
2023-02-09T09:45:17.059Z,61.6
2023-02-09T09:46:16.762Z,61.9
2023-02-09T09:47:17.273Z,62.6
2023-02-09T09:48:16.781Z,62.4
2023-02-09T09:49:17.272Z,62.3
2023-02-09T09:50:16.754Z,61.9
2023-02-09T09:51:17.264Z,61.2
2023-02-09T09:52:16.755Z,61.1
2023-02-09T09:53:17.255Z,60.8
2023-02-09T09:54:16.781Z,61.8
2023-02-09T09:55:17.287Z,62.0
2023-02-09T09:56:16.798Z,61.6
2023-02-09T09:57:17.285Z,61.2
2023-02-09T09:58:16.869Z,60.8
2023-02-09T09:59:17.367Z,62.0
2023-02-09T10:00:16.889Z,63.5
2023-02-09T10:01:17.561Z,62.3
2023-02-09T10:02:16.977Z,61.9
2023-02-09T10:03:16.479Z,62.2
2023-02-09T10:04:17.143Z,62.8
2023-02-09T10:05:16.644Z,62.5
2023-02-09T10:06:17.195Z,61.4
2023-02-09T10:07:20.146Z,61.6
2023-02-09T10:08:17.319Z,61.0
2023-02-09T10:09:16.849Z,60.7
2023-02-09T10:10:17.325Z,59.7
2023-02-09T10:11:16.835Z,60.3
2023-02-09T10:12:16.611Z,60.7
2023-02-09T10:13:17.114Z,60.5
2023-02-09T10:14:16.593Z,61.7
2023-02-09T10:15:17.120Z,61.5
2023-02-09T10:16:16.845Z,60.7
2023-02-09T10:17:17.435Z,61.2
2023-02-09T10:18:16.971Z,61.7
2023-02-09T10:19:16.476Z,61.4
2023-02-09T10:20:16.986Z,60.2
2023-02-09T10:21:16.478Z,59.9
2023-02-09T10:22:17.278Z,59.6
2023-02-09T10:23:16.825Z,59.1
2023-02-09T10:24:17.337Z,60.6
2023-02-09T10:25:16.905Z,60.4
2023-02-09T10:26:17.406Z,60.3
2023-02-09T10:27:16.911Z,59.9
2023-02-09T10:28:17.546Z,59.9
2023-02-09T10:29:17.020Z,61.7
2023-02-09T10:30:16.511Z,62.2
2023-02-09T10:31:17.236Z,62.0
2023-02-09T10:32:16.772Z,61.6
2023-02-09T10:33:17.279Z,62.1
2023-02-09T10:34:16.791Z,63.1
2023-02-09T10:35:17.333Z,64.0
2023-02-09T10:36:16.842Z,64.2
2023-02-09T10:37:17.420Z,64.0
2023-02-09T10:38:16.956Z,63.7
2023-02-09T10:39:17.433Z,63.6
2023-02-09T10:40:16.950Z,62.8
2023-02-09T10:41:17.481Z,60.6
2023-02-09T10:42:17.211Z,60.9
2023-02-09T10:43:16.712Z,60.5
2023-02-09T10:44:17.198Z,61.8
2023-02-09T10:45:16.697Z,62.2
2023-02-09T10:46:17.336Z,61.9
2023-02-09T10:47:16.889Z,61.1
2023-02-09T10:48:17.384Z,60.4
2023-02-09T10:49:16.908Z,60.5
2023-02-09T10:50:17.395Z,60.1
2023-02-09T10:51:16.899Z,60.0
2023-02-09T10:52:17.187Z,61.1
2023-02-09T10:53:16.709Z,60.6
2023-02-09T10:54:17.191Z,60.4
2023-02-09T10:55:16.691Z,60.9
2023-02-09T10:56:17.177Z,61.0
2023-02-09T10:57:16.665Z,59.9
2023-02-09T10:58:17.141Z,59.6
2023-02-09T10:59:16.647Z,59.0
2023-02-09T11:00:17.186Z,60.2
2023-02-09T11:01:16.815Z,61.5
2023-02-09T11:02:17.225Z,61.3
2023-02-09T11:03:16.721Z,62.4
2023-02-09T11:04:17.318Z,62.8
2023-02-09T11:05:17.057Z,62.7
2023-02-09T11:06:16.703Z,61.5
2023-02-09T11:07:17.216Z,60.7
2023-02-09T11:08:16.702Z,60.4
2023-02-09T11:09:17.199Z,59.8
2023-02-09T11:10:16.696Z,59.8
2023-02-09T11:11:17.194Z,60.0
2023-02-09T11:12:17.603Z,60.6
2023-02-09T11:13:17.289Z,61.7
2023-02-09T11:14:16.868Z,63.7
2023-02-09T11:15:17.357Z,63.7
2023-02-09T11:16:16.957Z,64.7
2023-02-09T11:17:16.485Z,64.0
2023-02-09T11:18:17.039Z,63.5
2023-02-09T11:19:16.576Z,63.7
2023-02-09T11:20:17.310Z,64.8
2023-02-09T11:21:16.836Z,64.6
2023-02-09T11:22:17.389Z,64.0
2023-02-09T11:23:16.878Z,64.0
2023-02-09T11:24:17.393Z,64.7
2023-02-09T11:25:16.872Z,64.5
2023-02-09T11:26:17.337Z,63.8
2023-02-09T11:27:16.835Z,64.0
2023-02-09T11:28:17.583Z,63.8
2023-02-09T11:29:17.147Z,63.6
2023-02-09T11:30:16.673Z,63.4
2023-02-09T11:31:17.378Z,63.8
2023-02-09T11:32:16.626Z,65.1
2023-02-09T11:33:17.118Z,66.2
2023-02-09T11:34:16.640Z,66.5
2023-02-09T11:35:17.128Z,66.6
2023-02-09T11:36:16.642Z,67.2
2023-02-09T11:37:17.122Z,66.9
2023-02-09T11:38:16.614Z,66.9
2023-02-09T11:39:17.153Z,67.3
2023-02-09T11:40:16.909Z,66.8
2023-02-09T11:41:17.440Z,66.7
2023-02-09T11:42:16.822Z,66.5
2023-02-09T11:43:17.335Z,66.9
2023-02-09T11:44:16.824Z,67.3
2023-02-09T11:45:17.330Z,67.3
2023-02-09T11:46:16.961Z,67.1
2023-02-09T11:47:16.509Z,67.4
2023-02-09T11:48:17.015Z,67.5
2023-02-09T11:49:16.521Z,66.7
2023-02-09T11:50:17.033Z,66.7
2023-02-09T11:51:16.527Z,66.9
2023-02-09T11:52:17.213Z,66.5
2023-02-09T11:53:16.748Z,66.0
2023-02-09T11:54:17.248Z,65.9
2023-02-09T11:55:16.741Z,65.8
2023-02-09T11:56:17.296Z,66.2
2023-02-09T11:57:16.997Z,66.4
2023-02-09T11:58:16.636Z,66.2
2023-02-09T11:59:17.145Z,66.4
2023-02-09T12:00:16.705Z,65.6
2023-02-09T12:01:18.234Z,66.2
2023-02-09T12:02:16.714Z,66.3
2023-02-09T12:03:17.555Z,66.4
2023-02-09T12:04:17.082Z,66.8
2023-02-09T12:05:16.592Z,66.6
2023-02-09T12:06:17.346Z,67.0
2023-02-09T12:07:16.836Z,67.4
2023-02-09T12:08:17.356Z,67.4
2023-02-09T12:09:16.855Z,67.5
2023-02-09T12:10:17.364Z,67.1
2023-02-09T12:11:16.849Z,67.1
2023-02-09T12:12:17.074Z,67.2
2023-02-09T12:13:16.588Z,67.3
2023-02-09T12:14:17.107Z,67.7
2023-02-09T12:15:16.617Z,67.6
2023-02-09T12:16:17.264Z,67.8
2023-02-09T12:17:16.772Z,67.9
2023-02-09T12:18:17.271Z,67.8
2023-02-09T12:19:16.755Z,67.8
2023-02-09T12:20:17.260Z,67.6
2023-02-09T12:21:16.777Z,67.5
2023-02-09T12:22:17.080Z,67.6
2023-02-09T12:23:16.563Z,67.7
2023-02-09T12:24:17.056Z,67.6
2023-02-09T12:25:16.550Z,67.8
2023-02-09T12:26:17.093Z,67.9
2023-02-09T12:27:16.618Z,67.5
2023-02-09T12:28:17.333Z,67.5
2023-02-09T12:29:16.902Z,67.4
2023-02-09T12:30:17.427Z,68.0
2023-02-09T12:31:17.243Z,68.1
2023-02-09T12:32:17.119Z,68.0
2023-02-09T12:33:16.616Z,67.9
2023-02-09T12:34:17.110Z,68.1
2023-02-09T12:35:16.624Z,68.2
2023-02-09T12:36:17.152Z,68.0
2023-02-09T12:37:16.649Z,68.6
2023-02-09T12:38:17.186Z,68.3
2023-02-09T12:39:23.496Z,68.3
2023-02-09T12:40:17.155Z,68.4
2023-02-09T12:41:16.707Z,68.5
2023-02-09T12:42:17.146Z,68.4
2023-02-09T12:43:16.626Z,68.3
2023-02-09T12:44:17.160Z,68.4
2023-02-09T12:45:16.656Z,68.5
2023-02-09T12:46:17.335Z,68.5
2023-02-09T12:47:16.862Z,68.3
2023-02-09T12:48:17.491Z,68.4
2023-02-09T12:49:17.277Z,68.5
2023-02-09T12:50:16.764Z,68.5
2023-02-09T12:51:17.286Z,68.6
2023-02-09T12:52:17.352Z,68.7
2023-02-09T12:53:16.858Z,68.5
2023-02-09T12:54:17.346Z,68.5
2023-02-09T12:55:16.856Z,68.5
2023-02-09T12:56:17.378Z,68.8
2023-02-09T12:57:17.393Z,68.8
2023-02-09T12:58:16.895Z,68.8
2023-02-09T12:59:17.528Z,68.9
2023-02-09T13:00:17.011Z,68.8
2023-02-09T13:01:16.669Z,68.7
2023-02-09T13:02:16.884Z,68.7
2023-02-09T13:03:17.379Z,68.7
2023-02-09T13:04:17.139Z,68.7
2023-02-09T13:05:16.728Z,68.7
2023-02-09T13:06:17.231Z,68.6
2023-02-09T13:07:16.734Z,68.8
2023-02-09T13:08:17.221Z,68.8
2023-02-09T13:09:16.714Z,68.7
2023-02-09T13:10:17.258Z,68.4
2023-02-09T13:11:16.742Z,68.5
2023-02-09T13:12:17.417Z,68.4
2023-02-09T13:13:16.944Z,68.4
2023-02-09T13:14:17.468Z,68.4
2023-02-09T13:15:16.995Z,68.3
2023-02-09T13:16:16.582Z,68.5
2023-02-09T13:17:17.136Z,68.8
2023-02-09T13:18:16.663Z,68.9